Time;durP1;ratioP1;P1;durP2;ratioP2;P2;SDS_P1;SDS_P2;PMS_P1;PMS_P2;Temp;Humidity;BMP_temperature;BMP_pressure;BME280_temperature;BME280_humidity;BME280_pressure;Samples;Min_cycle;Max_cycle;Signal;HPM_P1;HPM_P2
2024/01/12 00:02:10;;;;;;;30.37;16.30;;;0.80;99.90;;;;;;5089472;28;20660;-75
2024/01/12 00:04:39;;;;;;;30.63;15.87;;;0.70;99.90;;;;;;5089883;28;20290;-75
2024/01/12 00:07:05;;;;;;;22.17;13.30;;;0.70;99.90;;;;;;5089770;28;20203;-77
2024/01/12 00:09:32;;;;;;;24.37;13.80;;;0.80;99.90;;;;;;5089346;28;20323;-78
2024/01/12 00:11:59;;;;;;;23.53;14.17;;;0.80;99.90;;;;;;5089804;28;20408;-78
2024/01/12 00:14:26;;;;;;;21.33;13.40;;;0.80;99.90;;;;;;5089407;28;20290;-78
2024/01/12 00:16:53;;;;;;;23.43;12.63;;;0.80;99.90;;;;;;5089893;28;20298;-80
2024/01/12 00:19:20;;;;;;;21.77;12.07;;;0.80;99.90;;;;;;5089869;28;20293;-78
2024/01/12 00:21:48;;;;;;;18.67;11.50;;;0.80;99.90;;;;;;5089950;28;20321;-77
2024/01/12 00:24:15;;;;;;;20.60;11.77;;;0.70;99.90;;;;;;5089725;28;20214;-78
2024/01/12 00:26:42;;;;;;;24.33;12.10;;;0.70;99.90;;;;;;5089676;28;20298;-76
2024/01/12 00:29:09;;;;;;;19.93;11.40;;;0.80;99.90;;;;;;5089485;28;20245;-76
2024/01/12 00:31:37;;;;;;;22.13;12.67;;;0.80;99.90;;;;;;5089152;28;20199;-76
2024/01/12 00:34:04;;;;;;;19.97;11.17;;;0.80;99.90;;;;;;5089094;28;20272;-76
2024/01/12 00:36:31;;;;;;;20.50;11.33;;;0.80;99.90;;;;;;5087004;28;20225;-78
2024/01/12 00:38:59;;;;;;;20.43;11.43;;;0.90;99.90;;;;;;5089259;28;20241;-78
2024/01/12 00:41:26;;;;;;;21.40;11.67;;;0.70;99.90;;;;;;5089034;28;20341;-78
2024/01/12 00:43:52;;;;;;;18.77;11.47;;;0.80;99.90;;;;;;5088816;28;20234;-78
2024/01/12 00:46:19;;;;;;;18.03;11.23;;;0.80;99.90;;;;;;5088565;28;20290;-77
2024/01/12 00:48:48;;;;;;;20.97;10.57;;;0.80;99.90;;;;;;5087887;28;20813;-77
2024/01/12 00:51:15;;;;;;;18.90;11.13;;;0.80;99.90;;;;;;5089026;28;20202;-77
2024/01/12 00:53:42;;;;;;;17.00;10.30;;;0.90;99.90;;;;;;5088771;28;20202;-76
2024/01/12 00:56:10;;;;;;;16.37;10.67;;;0.80;99.90;;;;;;5088892;28;20297;-76
2024/01/12 00:58:37;;;;;;;23.07;11.87;;;0.80;99.90;;;;;;5085969;28;20219;-77
2024/01/12 01:01:04;;;;;;;18.00;10.97;;;0.80;99.90;;;;;;5088403;28;20658;-76
2024/01/12 01:03:31;;;;;;;18.97;11.27;;;0.90;99.90;;;;;;5088851;28;20294;-77
2024/01/12 01:05:58;;;;;;;21.83;11.83;;;0.90;99.90;;;;;;5088550;28;20203;-77
2024/01/12 01:08:25;;;;;;;18.90;11.83;;;0.90;99.90;;;;;;5087812;28;20758;-76
2024/01/12 01:10:52;;;;;;;19.17;12.20;;;0.80;99.90;;;;;;5085380;28;20209;-80
2024/01/12 01:13:20;;;;;;;23.07;11.63;;;0.80;99.90;;;;;;5087992;28;20261;-79
2024/01/12 01:15:47;;;;;;;23.13;11.53;;;0.90;99.90;;;;;;5088388;28;20627;-80
2024/01/12 01:18:15;;;;;;;20.33;12.27;;;0.80;99.90;;;;;;5088450;28;20210;-80
2024/01/12 01:20:42;;;;;;;22.47;11.93;;;0.80;99.90;;;;;;5088473;28;20233;-81
2024/01/12 01:23:09;;;;;;;23.00;12.30;;;0.90;99.90;;;;;;5088553;28;20305;-81
2024/01/12 01:25:37;;;;;;;26.93;12.20;;;0.80;99.90;;;;;;5067702;28;20848;-81
2024/01/12 01:28:04;;;;;;;25.30;10.97;;;0.80;99.90;;;;;;5068240;28;20298;-81
2024/01/12 01:30:32;;;;;;;21.50;11.90;;;0.80;99.90;;;;;;5067833;28;20250;-80
2024/01/12 01:32:59;;;;;;;26.43;12.20;;;0.80;99.90;;;;;;5077367;28;20306;-80
2024/01/12 01:35:26;;;;;;;24.83;11.97;;;1.00;99.90;;;;;;5087917;28;20253;-80
2024/01/12 01:37:53;;;;;;;22.33;12.37;;;0.80;99.90;;;;;;5088503;28;20226;-77
2024/01/12 01:40:20;;;;;;;27.77;12.90;;;0.90;99.90;;;;;;5088022;28;20293;-76
2024/01/12 01:42:48;;;;;;;29.53;12.93;;;0.80;99.90;;;;;;5088045;28;20323;-77
2024/01/12 01:45:15;;;;;;;27.83;12.17;;;0.80;99.90;;;;;;5087754;28;20211;-77
2024/01/12 01:47:45;;;;;;;24.07;12.27;;;0.90;99.90;;;;;;5088281;28;20293;-77
2024/01/12 01:50:14;;;;;;;23.20;12.67;;;1.00;99.90;;;;;;5088068;28;20219;-77
2024/01/12 01:52:43;;;;;;;30.80;12.33;;;0.80;99.90;;;;;;5087677;28;20652;-76
2024/01/12 01:55:12;;;;;;;28.70;12.93;;;0.90;99.90;;;;;;5087725;28;20290;-76
2024/01/12 01:57:42;;;;;;;24.80;11.97;;;1.00;99.90;;;;;;5087777;28;20207;-77
2024/01/12 02:00:10;;;;;;;27.07;12.87;;;0.90;99.90;;;;;;5086947;28;20199;-77
2024/01/12 02:02:37;;;;;;;22.87;12.40;;;1.00;99.90;;;;;;5087690;28;20226;-80
2024/01/12 02:05:08;;;;;;;23.97;12.03;;;0.90;99.90;;;;;;5087852;28;20293;-80
2024/01/12 02:07:35;;;;;;;24.43;12.93;;;0.90;99.90;;;;;;5087762;28;20654;-80
2024/01/12 02:10:02;;;;;;;27.43;12.47;;;1.00;99.90;;;;;;5087736;28;20321;-80
2024/01/12 02:12:30;;;;;;;25.27;13.27;;;0.90;99.90;;;;;;5087825;28;20297;-80
2024/01/12 02:14:57;;;;;;;26.27;12.37;;;1.00;99.90;;;;;;5088432;28;20242;-80
2024/01/12 02:17:24;;;;;;;27.43;13.03;;;1.00;99.90;;;;;;5087653;28;20203;-79
2024/01/12 02:19:58;;;;;;;25.93;12.60;;;1.00;99.90;;;;;;5087696;28;20743;-80
2024/01/12 02:22:26;;;;;;;29.50;13.03;;;1.00;99.90;;;;;;5087344;28;20872;-78
2024/01/12 02:24:53;;;;;;;27.37;12.13;;;0.90;99.90;;;;;;5087733;28;20992;-81
2024/01/12 02:27:21;;;;;;;26.77;12.43;;;0.90;99.90;;;;;;5087414;28;20317;-78
2024/01/12 02:29:50;;;;;;;29.87;12.40;;;1.00;99.90;;;;;;5087338;28;20735;-77
2024/01/12 02:32:17;;;;;;;27.97;12.37;;;1.00;99.90;;;;;;5087091;28;20214;-78
2024/01/12 02:34:44;;;;;;;27.60;13.13;;;1.10;99.90;;;;;;5087610;28;20289;-77
2024/01/12 02:37:11;;;;;;;27.17;13.40;;;0.90;99.90;;;;;;5087420;28;20305;-77
2024/01/12 02:39:39;;;;;;;29.27;12.53;;;1.00;99.90;;;;;;5087655;28;20277;-77
2024/01/12 02:42:06;;;;;;;27.50;13.13;;;1.00;99.90;;;;;;5087533;28;20279;-77
2024/01/12 02:44:33;;;;;;;29.40;12.90;;;1.10;99.90;;;;;;5087077;28;20243;-77
2024/01/12 02:47:00;;;;;;;33.47;13.60;;;0.90;99.90;;;;;;5087620;28;20298;-77
2024/01/12 02:49:27;;;;;;;28.70;13.80;;;1.00;99.90;;;;;;5087087;28;20310;-77
2024/01/12 02:51:54;;;;;;;31.70;13.70;;;0.90;99.90;;;;;;5087378;28;20305;-77
2024/01/12 02:54:21;;;;;;;35.67;14.20;;;1.10;99.90;;;;;;5087069;28;20577;-76
2024/01/12 02:56:49;;;;;;;29.37;14.37;;;1.10;99.90;;;;;;5087497;28;20255;-77
2024/01/12 02:59:16;;;;;;;37.97;13.57;;;1.00;99.90;;;;;;5086594;28;20202;-77
2024/01/12 03:01:43;;;;;;;34.37;14.47;;;1.10;99.90;;;;;;5086750;28;20233;-76
2024/01/12 03:04:10;;;;;;;30.83;13.30;;;0.90;99.90;;;;;;5086924;28;20202;-78
2024/01/12 03:06:37;;;;;;;33.47;13.63;;;0.90;99.90;;;;;;5086857;28;20302;-77
2024/01/12 03:09:04;;;;;;;33.13;13.50;;;1.10;99.90;;;;;;5086753;28;20287;-77
2024/01/12 03:11:31;;;;;;;35.00;13.33;;;1.00;99.90;;;;;;5088263;28;20206;-77
2024/01/12 03:14:00;;;;;;;34.97;13.47;;;1.00;99.90;;;;;;5090741;28;20206;-76
2024/01/12 03:16:27;;;;;;;31.53;13.37;;;1.00;99.90;;;;;;5090544;28;20201;-75
2024/01/12 03:18:54;;;;;;;30.40;12.73;;;1.10;99.90;;;;;;5091196;28;20214;-75
2024/01/12 03:21:21;;;;;;;33.27;13.97;;;1.10;99.90;;;;;;5090530;28;20234;-77
2024/01/12 03:23:48;;;;;;;33.37;13.53;;;1.00;99.90;;;;;;5090940;28;20293;-77
2024/01/12 03:26:15;;;;;;;30.17;12.83;;;1.10;99.90;;;;;;5090454;28;20209;-77
2024/01/12 03:28:42;;;;;;;37.60;13.20;;;1.00;99.90;;;;;;5090786;28;20199;-77
2024/01/12 03:31:10;;;;;;;33.40;12.97;;;0.90;99.90;;;;;;5090621;28;20306;-78
2024/01/12 03:33:38;;;;;;;29.73;11.83;;;0.90;99.90;;;;;;5071421;28;20208;-76
2024/01/12 03:36:07;;;;;;;31.13;13.40;;;1.00;99.90;;;;;;5068577;28;20246;-76
2024/01/12 03:38:34;;;;;;;27.37;13.20;;;0.90;99.90;;;;;;5079436;28;20705;-77
2024/01/12 03:41:01;;;;;;;27.13;12.13;;;1.00;99.90;;;;;;5088945;28;20289;-77
2024/01/12 03:43:28;;;;;;;25.30;12.30;;;0.90;99.90;;;;;;5088894;28;20325;-76
2024/01/12 03:45:55;;;;;;;26.93;13.47;;;0.90;99.90;;;;;;5088285;28;20293;-77
2024/01/12 03:48:23;;;;;;;23.13;12.17;;;1.10;99.90;;;;;;5070972;28;20210;-78
2024/01/12 03:50:50;;;;;;;27.27;14.30;;;1.10;99.90;;;;;;5079211;28;20623;-78
2024/01/12 03:53:16;;;;;;;27.87;11.83;;;1.00;99.90;;;;;;5088391;28;20744;-77
2024/01/12 03:55:43;;;;;;;33.57;13.13;;;1.10;99.90;;;;;;5087774;28;20591;-77
2024/01/12 03:58:10;;;;;;;26.30;13.07;;;1.00;99.90;;;;;;5089791;28;20307;-76
2024/01/12 04:00:37;;;;;;;32.10;13.70;;;1.10;99.90;;;;;;5089777;28;20715;-77
2024/01/12 04:03:04;;;;;;;31.77;13.13;;;1.00;99.90;;;;;;5090059;28;20245;-77
2024/01/12 04:05:33;;;;;;;30.47;12.73;;;1.00;99.90;;;;;;5089965;28;20705;-77
2024/01/12 04:08:00;;;;;;;31.97;13.03;;;1.10;99.90;;;;;;5090268;28;20282;-77
2024/01/12 04:10:27;;;;;;;32.80;14.40;;;1.00;99.90;;;;;;5089441;28;20243;-77
2024/01/12 04:12:53;;;;;;;32.33;13.90;;;1.00;99.90;;;;;;5089931;28;20299;-76
2024/01/12 04:15:21;;;;;;;33.90;14.20;;;0.90;99.90;;;;;;5089909;28;20209;-77
2024/01/12 04:17:48;;;;;;;35.73;14.27;;;1.00;99.90;;;;;;5090260;28;20328;-77
2024/01/12 04:20:15;;;;;;;28.57;12.67;;;0.90;99.90;;;;;;5089563;28;20744;-77
2024/01/12 04:22:43;;;;;;;35.20;14.00;;;1.00;99.90;;;;;;5088514;28;20748;-77
2024/01/12 04:25:10;;;;;;;32.07;12.80;;;1.00;99.90;;;;;;5089165;28;20319;-77
2024/01/12 04:27:37;;;;;;;29.20;12.30;;;1.00;99.90;;;;;;5088482;28;20328;-77
2024/01/12 04:30:05;;;;;;;34.83;13.50;;;0.90;99.90;;;;;;5089498;28;20305;-77
2024/01/12 04:32:32;;;;;;;34.23;13.00;;;1.00;99.90;;;;;;5089606;28;20268;-77
2024/01/12 04:34:58;;;;;;;30.57;13.33;;;0.90;99.90;;;;;;5089765;28;20202;-77
2024/01/12 04:37:25;;;;;;;27.87;11.40;;;1.00;99.90;;;;;;5089437;28;20322;-77
2024/01/12 04:39:53;;;;;;;33.33;14.20;;;1.00;99.90;;;;;;5089603;28;20207;-77
2024/01/12 04:42:20;;;;;;;32.20;12.43;;;1.00;99.90;;;;;;5088712;28;20313;-77
2024/01/12 04:44:47;;;;;;;28.13;11.17;;;1.00;99.90;;;;;;5070690;28;20291;-77
2024/01/12 04:47:14;;;;;;;32.30;12.93;;;1.00;99.90;;;;;;5068874;28;20311;-77
2024/01/12 04:49:41;;;;;;;32.13;12.77;;;1.00;99.90;;;;;;5069163;28;20307;-77
2024/01/12 04:52:08;;;;;;;31.07;12.60;;;1.00;99.90;;;;;;5069056;28;20294;-77
2024/01/12 04:54:35;;;;;;;26.77;11.93;;;0.90;99.90;;;;;;5069117;28;20294;-77
2024/01/12 04:57:03;;;;;;;29.97;12.57;;;1.00;99.90;;;;;;5068751;28;20322;-77
2024/01/12 04:59:30;;;;;;;28.27;11.30;;;0.90;99.90;;;;;;5068192;28;20246;-77
2024/01/12 05:01:57;;;;;;;28.50;11.93;;;0.80;99.90;;;;;;5068369;28;20310;-77
2024/01/12 05:04:23;;;;;;;27.33;10.93;;;0.90;99.90;;;;;;5068520;28;21012;-77
2024/01/12 05:06:50;;;;;;;23.83;10.97;;;0.80;99.90;;;;;;5068873;28;20291;-78
2024/01/12 05:09:17;;;;;;;23.63;11.13;;;0.80;99.90;;;;;;5068451;28;20318;-77
2024/01/12 05:11:44;;;;;;;24.80;10.70;;;0.90;99.90;;;;;;5082952;28;20301;-77
2024/01/12 05:14:12;;;;;;;23.23;10.27;;;0.80;99.90;;;;;;5088874;28;20302;-77
2024/01/12 05:16:39;;;;;;;23.87;10.77;;;0.90;99.90;;;;;;5088906;28;20230;-77
2024/01/12 05:19:06;;;;;;;27.00;12.33;;;0.80;99.90;;;;;;5088833;28;20206;-77
2024/01/12 05:21:33;;;;;;;27.17;10.97;;;0.70;99.90;;;;;;5088349;28;20211;-77
2024/01/12 05:24:00;;;;;;;25.17;10.83;;;0.70;99.90;;;;;;5088742;28;20226;-77
2024/01/12 05:26:27;;;;;;;19.80;9.00;;;0.60;99.90;;;;;;5088491;28;20286;-76
2024/01/12 05:28:54;;;;;;;24.73;9.53;;;0.60;99.90;;;;;;5088653;28;20229;-77
2024/01/12 05:31:22;;;;;;;20.27;10.00;;;0.60;99.90;;;;;;5088376;28;20293;-77
2024/01/12 05:33:49;;;;;;;20.03;9.67;;;0.70;99.90;;;;;;5088167;28;20672;-77
2024/01/12 05:36:16;;;;;;;19.43;9.03;;;0.70;99.90;;;;;;5088142;28;20298;-77
2024/01/12 05:38:43;;;;;;;20.47;9.10;;;0.70;99.90;;;;;;5085590;28;20314;-77
2024/01/12 05:41:10;;;;;;;21.63;8.97;;;0.60;99.90;;;;;;5078680;28;20294;-77
2024/01/12 05:43:37;;;;;;;18.37;9.27;;;0.70;99.90;;;;;;5068003;28;20230;-76
2024/01/12 05:46:05;;;;;;;20.23;9.80;;;0.60;99.90;;;;;;5068154;28;20285;-77
2024/01/12 05:48:33;;;;;;;18.93;8.93;;;0.50;99.90;;;;;;5068085;28;20286;-77
2024/01/12 05:51:01;;;;;;;20.10;8.90;;;0.60;99.90;;;;;;5067784;28;20742;-76
2024/01/12 05:53:27;;;;;;;22.90;9.40;;;0.60;99.90;;;;;;5067486;28;20219;-77
2024/01/12 05:55:54;;;;;;;16.50;8.97;;;0.60;99.90;;;;;;5072934;28;20820;-77
2024/01/12 05:58:21;;;;;;;20.00;8.93;;;0.60;99.90;;;;;;5085385;28;20210;-77
2024/01/12 06:00:48;;;;;;;17.60;8.43;;;0.50;99.90;;;;;;5088313;28;20290;-76
2024/01/12 06:03:15;;;;;;;23.20;9.47;;;0.40;99.90;;;;;;5087484;28;20234;-77
2024/01/12 06:05:45;;;;;;;18.60;8.70;;;0.40;99.90;;;;;;5087935;28;20806;-77
2024/01/12 06:08:12;;;;;;;19.97;8.20;;;0.50;99.90;;;;;;5088005;28;20195;-77
2024/01/12 06:10:39;;;;;;;20.30;8.17;;;0.50;99.90;;;;;;5087651;28;20334;-76
2024/01/12 06:13:06;;;;;;;20.67;9.23;;;0.50;99.90;;;;;;5087632;28;20287;-77
2024/01/12 06:15:33;;;;;;;19.63;8.07;;;0.50;99.90;;;;;;5087777;28;20301;-77
2024/01/12 06:18:00;;;;;;;21.27;8.13;;;0.50;99.90;;;;;;5087937;28;20301;-76
2024/01/12 06:20:27;;;;;;;18.43;8.37;;;0.40;99.90;;;;;;5087757;28;20647;-77
2024/01/12 06:22:55;;;;;;;17.83;8.20;;;0.40;99.90;;;;;;5087823;28;20697;-77
2024/01/12 06:25:23;;;;;;;18.80;8.33;;;0.40;99.90;;;;;;5087535;28;20298;-77
2024/01/12 06:27:50;;;;;;;21.17;8.53;;;0.50;99.90;;;;;;5087516;28;20288;-77
2024/01/12 06:30:17;;;;;;;19.87;8.40;;;0.30;99.90;;;;;;5087516;28;20298;-76
2024/01/12 06:32:44;;;;;;;20.17;8.73;;;0.40;99.90;;;;;;5087801;28;20213;-77
2024/01/12 06:35:12;;;;;;;21.00;8.77;;;0.40;99.90;;;;;;5081432;28;20217;-76
2024/01/12 06:37:39;;;;;;;25.53;9.77;;;0.40;99.90;;;;;;5087708;28;20314;-76
2024/01/12 06:40:09;;;;;;;21.27;9.00;;;0.50;99.90;;;;;;5087437;28;20282;-76
2024/01/12 06:42:37;;;;;;;21.30;8.97;;;0.50;99.90;;;;;;5087343;28;20325;-76
2024/01/12 06:45:07;;;;;;;21.53;9.07;;;0.60;99.90;;;;;;5087459;28;20206;-77
2024/01/12 06:47:34;;;;;;;20.23;8.97;;;0.60;99.90;;;;;;5090262;28;20203;-76
2024/01/12 06:50:01;;;;;;;21.37;8.43;;;0.60;99.90;;;;;;5091620;28;20212;-77
2024/01/12 06:52:28;;;;;;;24.30;9.90;;;0.50;99.90;;;;;;5091588;28;20217;-77
2024/01/12 06:54:55;;;;;;;21.90;9.10;;;0.50;99.90;;;;;;5091639;28;20420;-76
2024/01/12 06:57:23;;;;;;;20.27;9.20;;;0.60;99.90;;;;;;5091146;28;20213;-77
2024/01/12 06:59:50;;;;;;;20.27;8.77;;;0.60;99.90;;;;;;5091411;28;20206;-77
2024/01/12 07:02:18;;;;;;;23.20;10.10;;;0.70;99.90;;;;;;5091013;28;20623;-77
2024/01/12 07:04:45;;;;;;;27.07;10.00;;;0.80;99.90;;;;;;5091718;28;20206;-77
2024/01/12 07:07:12;;;;;;;32.30;13.47;;;0.90;99.90;;;;;;5091440;28;20289;-77
2024/01/12 07:09:40;;;;;;;25.07;9.90;;;0.80;99.90;;;;;;5091091;28;20713;-76
2024/01/12 07:12:08;;;;;;;28.53;10.80;;;0.90;99.90;;;;;;5090958;28;20297;-76
2024/01/12 07:14:36;;;;;;;25.53;10.70;;;0.90;99.90;;;;;;5090843;28;20302;-76
2024/01/12 07:17:03;;;;;;;25.93;10.97;;;0.80;99.90;;;;;;5091238;28;20306;-76
2024/01/12 07:19:30;;;;;;;24.93;10.97;;;0.80;99.90;;;;;;5091250;28;20249;-76
2024/01/12 07:21:57;;;;;;;22.53;10.57;;;0.80;99.90;;;;;;5091265;28;20209;-75
2024/01/12 07:24:24;;;;;;;28.97;11.23;;;0.70;99.90;;;;;;5091022;28;20342;-76
2024/01/12 07:26:51;;;;;;;26.20;10.23;;;0.70;99.90;;;;;;5090786;28;20211;-76
2024/01/12 07:29:22;;;;;;;30.20;11.40;;;0.80;99.90;;;;;;5090841;28;20624;-76
2024/01/12 07:31:50;;;;;;;24.40;10.40;;;0.70;99.90;;;;;;5090342;28;20207;-76
2024/01/12 07:34:17;;;;;;;25.70;10.47;;;0.80;99.90;;;;;;5090556;28;20302;-76
2024/01/12 07:36:44;;;;;;;21.93;9.33;;;0.70;99.90;;;;;;5091038;28;20301;-76
2024/01/12 07:39:12;;;;;;;22.03;9.23;;;0.70;99.90;;;;;;5090536;28;20678;-76
2024/01/12 07:41:39;;;;;;;24.63;9.47;;;0.70;99.90;;;;;;5090542;28;20215;-76
2024/01/12 07:44:07;;;;;;;22.30;9.40;;;0.80;99.90;;;;;;5090608;28;20239;-76
2024/01/12 07:46:34;;;;;;;22.30;9.47;;;0.80;99.90;;;;;;5090538;28;20292;-76
2024/01/12 07:49:02;;;;;;;27.57;10.17;;;0.80;99.90;;;;;;5090738;28;20549;-77
2024/01/12 07:51:29;;;;;;;27.47;10.47;;;0.70;99.90;;;;;;5090224;28;20688;-76
2024/01/12 07:53:56;;;;;;;28.77;10.03;;;0.80;99.90;;;;;;5090330;28;20289;-77
2024/01/12 07:56:23;;;;;;;26.23;10.43;;;0.80;99.90;;;;;;5090467;28;20210;-76
2024/01/12 07:58:50;;;;;;;25.87;10.20;;;0.70;99.90;;;;;;5089177;28;20298;-76
2024/01/12 08:01:17;;;;;;;24.10;9.27;;;0.80;99.90;;;;;;5089818;28;20297;-76
2024/01/12 08:03:45;;;;;;;24.17;9.20;;;0.80;99.90;;;;;;5090253;28;20235;-77
2024/01/12 08:06:14;;;;;;;18.97;8.93;;;0.70;99.90;;;;;;5090180;28;20211;-78
2024/01/12 08:08:41;;;;;;;15.00;6.90;;;0.80;99.90;;;;;;5090096;28;20243;-78
2024/01/12 08:11:07;;;;;;;16.50;7.57;;;0.70;99.90;;;;;;5089757;28;20298;-78
2024/01/12 08:13:34;;;;;;;19.17;8.57;;;0.70;99.90;;;;;;5089547;28;20243;-77
2024/01/12 08:16:01;;;;;;;22.33;9.27;;;0.80;99.90;;;;;;5090281;28;20629;-77
2024/01/12 08:18:28;;;;;;;18.33;8.67;;;0.80;99.90;;;;;;5089929;28;20227;-77
2024/01/12 08:20:55;;;;;;;17.03;7.73;;;0.70;99.90;;;;;;5089664;28;20697;-77
2024/01/12 08:23:24;;;;;;;19.97;8.03;;;0.70;99.90;;;;;;5089544;28;20303;-77
2024/01/12 08:25:50;;;;;;;15.50;6.63;;;0.80;99.90;;;;;;5089341;28;20289;-78
2024/01/12 08:28:17;;;;;;;12.73;6.57;;;0.80;99.90;;;;;;5088513;28;20745;-77
2024/01/12 08:30:44;;;;;;;9.80;5.73;;;0.80;99.90;;;;;;5089698;28;20210;-77
2024/01/12 08:33:11;;;;;;;7.07;4.40;;;0.80;99.90;;;;;;5090086;28;20242;-77
2024/01/12 08:35:38;;;;;;;8.13;4.80;;;0.80;99.90;;;;;;5089577;28;20241;-77
2024/01/12 08:38:05;;;;;;;10.33;5.50;;;0.80;99.90;;;;;;5089168;28;20309;-77
2024/01/12 08:40:35;;;;;;;7.60;4.87;;;0.80;99.90;;;;;;5088885;28;20547;-77
2024/01/12 08:43:02;;;;;;;7.67;4.63;;;0.90;99.90;;;;;;5088675;28;20222;-77
2024/01/12 08:45:29;;;;;;;6.33;4.40;;;0.80;99.90;;;;;;5089265;28;20290;-77
2024/01/12 08:47:58;;;;;;;6.77;4.67;;;0.70;99.90;;;;;;5089431;28;20293;-77
2024/01/12 08:50:25;;;;;;;6.13;4.77;;;0.70;99.90;;;;;;5088942;28;20673;-77
2024/01/12 08:52:53;;;;;;;5.60;4.20;;;0.70;99.90;;;;;;5089124;28;20661;-77
2024/01/12 08:55:20;;;;;;;6.47;4.73;;;0.80;99.90;;;;;;5089305;28;20256;-77
2024/01/12 08:57:48;;;;;;;7.77;4.87;;;0.80;99.90;;;;;;5088853;28;20727;-77
2024/01/12 09:00:16;;;;;;;7.07;4.60;;;0.80;99.90;;;;;;5089173;28;20268;-77
2024/01/12 09:02:43;;;;;;;10.53;5.47;;;0.80;99.90;;;;;;5089295;28;20207;-77
2024/01/12 09:05:11;;;;;;;9.63;5.30;;;0.80;99.90;;;;;;5088518;28;20266;-77
2024/01/12 09:07:38;;;;;;;8.53;5.43;;;0.70;99.90;;;;;;5089134;28;20199;-77
2024/01/12 09:10:06;;;;;;;8.43;5.20;;;0.80;99.90;;;;;;5088543;28;20231;-77
2024/01/12 09:12:33;;;;;;;10.13;4.83;;;0.80;99.90;;;;;;5088600;28;20238;-77
2024/01/12 09:15:02;;;;;;;8.07;5.13;;;0.80;99.90;;;;;;5089090;28;20214;-77
2024/01/12 09:17:29;;;;;;;8.90;5.40;;;0.80;99.90;;;;;;5088496;28;20210;-77
2024/01/12 09:19:55;;;;;;;10.90;5.07;;;0.80;99.90;;;;;;5088963;28;20635;-77
2024/01/12 09:22:22;;;;;;;6.93;4.63;;;0.80;99.90;;;;;;5088451;28;20301;-77
2024/01/12 09:24:49;;;;;;;8.40;5.27;;;0.80;99.90;;;;;;5088151;28;20241;-77
2024/01/12 09:27:16;;;;;;;9.20;5.10;;;0.90;99.90;;;;;;5088590;28;20298;-76
2024/01/12 09:29:43;;;;;;;7.30;4.57;;;0.90;99.90;;;;;;5088992;28;20294;-76
2024/01/12 09:32:11;;;;;;;9.67;5.67;;;0.80;99.90;;;;;;5088755;28;20280;-75
2024/01/12 09:34:38;;;;;;;12.13;5.03;;;0.80;99.90;;;;;;5088445;28;20241;-76
2024/01/12 09:37:06;;;;;;;7.67;5.33;;;0.80;99.90;;;;;;5088465;28;20266;-76
2024/01/12 09:39:33;;;;;;;9.80;6.30;;;0.80;99.90;;;;;;5088759;28;20202;-76
2024/01/12 09:42:02;;;;;;;11.33;6.17;;;0.80;99.90;;;;;;5088390;28;20211;-76
2024/01/12 09:44:30;;;;;;;14.23;6.20;;;0.80;99.90;;;;;;5088351;28;20288;-76
2024/01/12 09:46:58;;;;;;;10.73;5.83;;;0.80;99.90;;;;;;5088459;28;20209;-75
2024/01/12 09:49:28;;;;;;;11.40;6.40;;;0.80;99.90;;;;;;5088092;28;20203;-76
2024/01/12 09:51:56;;;;;;;12.40;6.47;;;0.70;99.90;;;;;;5088219;28;20217;-75
2024/01/12 09:54:23;;;;;;;12.77;7.00;;;0.70;99.90;;;;;;5087895;28;20554;-76
2024/01/12 09:56:51;;;;;;;10.73;6.50;;;0.70;99.90;;;;;;5088175;28;20237;-76
2024/01/12 09:59:19;;;;;;;9.77;5.83;;;0.70;99.90;;;;;;5088104;28;20215;-76
2024/01/12 10:01:46;;;;;;;12.13;6.40;;;0.80;99.90;;;;;;5088124;28;20230;-76
2024/01/12 10:04:13;;;;;;;9.57;6.10;;;0.70;99.90;;;;;;5087837;28;20233;-76
2024/01/12 10:06:41;;;;;;;13.80;6.37;;;0.80;99.90;;;;;;5088023;28;20206;-76
2024/01/12 10:09:09;;;;;;;11.33;6.23;;;0.70;99.90;;;;;;5087678;28;20341;-76
2024/01/12 10:11:36;;;;;;;13.50;6.40;;;0.80;99.90;;;;;;5087533;28;20703;-77
2024/01/12 10:14:04;;;;;;;8.73;5.40;;;0.80;99.90;;;;;;5087873;28;20215;-76
2024/01/12 10:16:31;;;;;;;13.77;7.10;;;0.80;99.90;;;;;;5087667;28;20669;-75
2024/01/12 10:18:57;;;;;;;14.17;7.37;;;0.80;99.90;;;;;;5088072;28;20301;-76
2024/01/12 10:21:25;;;;;;;16.00;7.27;;;0.70;99.90;;;;;;5085818;28;20211;-77
2024/01/12 10:24:02;;;;;;;17.50;7.70;;;0.70;99.90;;;;;;5087222;28;20623;-76
2024/01/12 10:26:29;;;;;;;17.50;8.00;;;0.70;99.90;;;;;;5088156;28;20229;-76
2024/01/12 10:29:01;;;;;;;15.37;7.37;;;0.60;99.90;;;;;;5087436;28;20281;-76
2024/01/12 10:31:28;;;;;;;14.37;7.43;;;0.60;99.90;;;;;;5087914;28;20473;-76
2024/01/12 10:33:58;;;;;;;13.87;7.10;;;0.70;99.90;;;;;;5087537;28;20245;-76
2024/01/12 10:36:28;;;;;;;10.93;6.33;;;0.60;99.90;;;;;;5087362;28;20229;-76
2024/01/12 10:38:58;;;;;;;15.23;6.80;;;0.60;99.90;;;;;;5087760;28;20650;-76
2024/01/12 10:41:26;;;;;;;13.47;6.60;;;0.60;99.90;;;;;;5075399;28;20684;-76
2024/01/12 10:43:56;;;;;;;17.70;7.77;;;0.60;99.90;;;;;;5067127;28;20237;-76
2024/01/12 10:46:30;;;;;;;11.47;7.00;;;0.50;99.90;;;;;;5067150;28;20203;-76
2024/01/12 10:49:06;;;;;;;9.77;6.53;;;0.60;99.90;;;;;;5067558;28;20191;-77
2024/01/12 10:51:37;;;;;;;11.07;5.77;;;0.50;99.90;;;;;;5067359;28;20226;-76
2024/01/12 10:54:13;;;;;;;10.73;5.87;;;0.50;99.90;;;;;;5067168;28;20291;-76
2024/01/12 10:56:42;;;;;;;14.03;6.43;;;0.50;99.90;;;;;;5085793;28;20732;-76
2024/01/12 10:59:09;;;;;;;12.93;6.60;;;0.50;99.90;;;;;;5087320;28;20293;-77
2024/01/12 11:01:41;;;;;;;15.67;7.23;;;0.50;99.90;;;;;;5087648;28;20199;-77
2024/01/12 11:04:08;;;;;;;13.30;7.40;;;0.50;99.90;;;;;;5087251;28;20309;-77
2024/01/12 11:06:36;;;;;;;11.83;6.93;;;0.50;99.90;;;;;;5087491;28;20287;-76
2024/01/12 11:09:06;;;;;;;12.83;6.77;;;0.40;99.90;;;;;;5087142;28;20323;-76
2024/01/12 11:11:44;;;;;;;13.27;7.13;;;0.50;99.90;;;;;;5087354;28;20207;-77
2024/01/12 11:14:11;;;;;;;13.87;7.00;;;0.50;99.90;;;;;;5087291;28;20287;-77
2024/01/12 11:16:38;;;;;;;11.67;6.27;;;0.60;99.90;;;;;;5084031;28;20648;-77
2024/01/12 11:19:13;;;;;;;12.83;6.90;;;0.60;99.90;;;;;;5087518;28;20301;-77
2024/01/12 11:21:40;;;;;;;10.23;6.03;;;0.50;99.90;;;;;;5087453;28;20225;-77
2024/01/12 11:24:10;;;;;;;12.53;6.67;;;0.60;99.90;;;;;;5087306;28;20269;-79
2024/01/12 11:26:37;;;;;;;11.50;6.77;;;0.50;99.90;;;;;;5087149;28;20286;-77
2024/01/12 11:29:04;;;;;;;12.87;6.80;;;0.50;99.90;;;;;;5086811;28;20285;-77
2024/01/12 11:31:31;;;;;;;14.07;6.93;;;0.50;99.90;;;;;;5087195;28;20644;-77
2024/01/12 11:34:02;;;;;;;14.47;7.53;;;0.50;99.90;;;;;;5090499;28;20230;-77
2024/01/12 11:36:30;;;;;;;15.70;7.93;;;0.50;99.90;;;;;;5090203;28;20293;-77
2024/01/12 11:39:00;;;;;;;13.30;6.97;;;0.60;99.90;;;;;;5090786;28;20297;-77
2024/01/12 11:41:30;;;;;;;15.90;7.90;;;0.50;99.90;;;;;;5090497;28;20661;-77
2024/01/12 11:43:58;;;;;;;12.43;6.80;;;0.50;99.90;;;;;;5090200;28;20252;-77
2024/01/12 11:46:26;;;;;;;12.73;7.37;;;0.50;99.90;;;;;;5090369;28;20759;-77
2024/01/12 11:48:53;;;;;;;14.53;8.33;;;0.40;99.90;;;;;;5090312;28;20207;-76
2024/01/12 11:51:24;;;;;;;12.80;7.70;;;0.50;99.90;;;;;;5090655;28;20210;-77
2024/01/12 11:53:56;;;;;;;18.53;8.67;;;0.50;99.90;;;;;;5090686;28;20286;-77
2024/01/12 11:56:23;;;;;;;15.37;7.67;;;0.50;99.90;;;;;;5090607;28;20203;-77
2024/01/12 11:58:52;;;;;;;16.13;7.47;;;0.50;99.90;;;;;;5090133;28;20687;-77
2024/01/12 12:01:20;;;;;;;11.70;6.97;;;0.50;99.90;;;;;;5090038;28;20571;-77
2024/01/12 12:03:49;;;;;;;14.43;7.30;;;0.40;99.90;;;;;;5089919;28;20250;-76
2024/01/12 12:06:16;;;;;;;12.50;6.90;;;0.50;99.90;;;;;;5090015;28;20685;-77
2024/01/12 12:08:43;;;;;;;15.50;7.57;;;0.50;99.90;;;;;;5090388;28;20215;-77
2024/01/12 12:11:12;;;;;;;16.43;7.67;;;0.50;99.90;;;;;;5090156;28;20215;-77
2024/01/12 12:13:39;;;;;;;15.43;7.77;;;0.50;99.90;;;;;;5086842;28;20221;-76
2024/01/12 12:16:08;;;;;;;14.17;7.43;;;0.50;99.90;;;;;;5090073;28;20217;-77
2024/01/12 12:18:35;;;;;;;18.67;7.90;;;0.50;99.90;;;;;;5089946;28;20335;-78
2024/01/12 12:21:02;;;;;;;17.00;8.00;;;0.50;99.90;;;;;;5089342;28;20298;-77
2024/01/12 12:23:30;;;;;;;13.10;7.73;;;0.50;99.90;;;;;;5089646;28;20586;-76
2024/01/12 12:25:57;;;;;;;13.60;7.40;;;0.50;99.90;;;;;;5089983;28;20235;-77
2024/01/12 12:28:24;;;;;;;13.77;7.50;;;0.40;99.90;;;;;;5089514;28;20230;-76
2024/01/12 12:30:53;;;;;;;13.50;7.30;;;0.40;99.90;;;;;;5089995;28;20213;-76
2024/01/12 12:33:24;;;;;;;14.63;7.50;;;0.40;99.90;;;;;;5089683;28;20209;-76
2024/01/12 12:36:02;;;;;;;15.80;8.23;;;0.40;99.90;;;;;;5089933;28;20202;-76
2024/01/12 12:38:29;;;;;;;17.57;7.87;;;0.40;99.90;;;;;;5089251;28;20238;-76
2024/01/12 12:40:58;;;;;;;14.27;7.57;;;0.30;99.90;;;;;;5089878;28;20230;-76
2024/01/12 12:43:25;;;;;;;16.30;7.97;;;0.30;99.90;;;;;;5089107;28;20217;-76
2024/01/12 12:45:52;;;;;;;14.77;7.20;;;0.30;99.90;;;;;;5089144;28;20284;-76